createdAt,value
2019-04-25T00:01:56.920Z,25.77
2019-04-25T00:04:25.684Z,22.27
2019-04-25T00:06:54.224Z,23.07
2019-04-25T00:09:23.336Z,19.13
2019-04-25T00:11:52.317Z,23.27
2019-04-25T00:14:22.607Z,23.23
2019-04-25T00:16:52.524Z,21.73
2019-04-25T00:19:21.878Z,24.30
2019-04-25T00:21:55.390Z,22.77
2019-04-25T00:24:32.083Z,23.30
2019-04-25T00:27:02.088Z,22.10
2019-04-25T00:29:31.893Z,22.63
2019-04-25T00:32:01.629Z,24.40
2019-04-25T00:34:31.648Z,25.53
2019-04-25T00:37:02.360Z,23.03
2019-04-25T00:39:31.941Z,22.33
2019-04-25T00:42:02.146Z,22.10
2019-04-25T00:44:31.940Z,22.37
2019-04-25T00:47:02.311Z,22.20
2019-04-25T00:49:32.236Z,23.50
2019-04-25T00:52:01.943Z,26.77
2019-04-25T00:54:31.349Z,25.40
2019-04-25T00:57:00.092Z,25.93
2019-04-25T00:59:35.933Z,22.83
2019-04-25T01:02:07.619Z,24.67
2019-04-25T01:04:36.167Z,23.13
2019-04-25T01:07:04.619Z,23.90
2019-04-25T01:09:33.078Z,28.10
2019-04-25T01:12:02.213Z,23.53
2019-04-25T01:14:33.623Z,19.77
2019-04-25T01:17:01.996Z,18.87
2019-04-25T01:19:30.535Z,23.97
2019-04-25T01:21:59.092Z,22.90
2019-04-25T01:24:27.644Z,21.83
2019-04-25T01:26:56.096Z,17.50
2019-04-25T01:29:24.733Z,15.10
2019-04-25T01:31:54.405Z,18.00
2019-04-25T01:34:25.822Z,21.07
2019-04-25T01:36:58.873Z,22.73
2019-04-25T01:39:31.965Z,25.23
2019-04-25T01:42:03.597Z,17.60
2019-04-25T01:44:34.124Z,14.33
2019-04-25T01:47:04.210Z,18.27
2019-04-25T01:49:33.968Z,17.23
2019-04-25T01:52:03.619Z,17.67
2019-04-25T01:54:33.827Z,15.77
2019-04-25T01:57:04.310Z,20.87
2019-04-25T01:59:33.803Z,20.57
2019-04-25T02:02:03.815Z,14.13
2019-04-25T02:04:34.118Z,17.07
2019-04-25T02:07:03.617Z,20.40
2019-04-25T02:09:33.727Z,18.93
2019-04-25T02:12:06.761Z,18.73
2019-04-25T02:14:35.200Z,10.27
2019-04-25T02:17:04.548Z,12.20
2019-04-25T02:19:34.304Z,14.00
2019-04-25T02:22:03.990Z,10.30
2019-04-25T02:24:33.858Z,12.13
2019-04-25T02:27:04.577Z,7.43
2019-04-25T02:29:33.297Z,9.63
2019-04-25T02:32:05.982Z,5.97
2019-04-25T02:34:34.534Z,16.40
2019-04-25T02:37:05.640Z,10.50
2019-04-25T02:39:36.783Z,8.23
2019-04-25T02:42:06.933Z,9.50
2019-04-25T02:44:34.862Z,8.47
2019-04-25T02:47:08.145Z,6.93
2019-04-25T02:49:45.516Z,10.97
2019-04-25T02:52:17.901Z,10.50
2019-04-25T02:54:45.759Z,9.90
2019-04-25T02:57:14.700Z,9.50
2019-04-25T02:59:45.122Z,4.30
2019-04-25T03:02:15.447Z,5.13
2019-04-25T03:04:44.576Z,2.47
2019-04-25T03:07:16.703Z,5.50
2019-04-25T03:09:45.110Z,3.97
2019-04-25T03:12:26.889Z,8.43
2019-04-25T03:14:44.771Z,3.27
2019-04-25T03:17:14.270Z,4.27
2019-04-25T03:19:50.834Z,3.47
2019-04-25T03:22:26.431Z,6.53
2019-04-25T03:24:54.927Z,5.17
2019-04-25T03:27:25.214Z,8.13
2019-04-25T03:29:54.242Z,8.23
2019-04-25T03:32:27.856Z,7.83
2019-04-25T03:34:54.711Z,11.37
2019-04-25T03:37:23.480Z,10.20
2019-04-25T03:39:53.451Z,11.87
2019-04-25T03:42:22.075Z,11.00
2019-04-25T03:44:50.536Z,15.90
2019-04-25T03:47:19.065Z,13.60
2019-04-25T03:49:47.572Z,12.83
2019-04-25T03:52:16.019Z,16.30
2019-04-25T03:54:44.486Z,12.47
2019-04-25T03:57:14.503Z,13.13
2019-04-25T03:59:43.682Z,11.70
2019-04-25T04:02:13.512Z,12.50
2019-04-25T04:04:43.487Z,14.23
2019-04-25T04:07:12.722Z,14.37
2019-04-25T04:09:43.546Z,13.33
2019-04-25T04:12:12.391Z,13.13
2019-04-25T04:14:40.940Z,11.50
2019-04-25T04:17:16.752Z,10.33
2019-04-25T04:19:46.826Z,10.07
2019-04-25T04:22:24.083Z,9.37
2019-04-25T04:24:54.307Z,9.47
2019-04-25T04:27:23.960Z,11.33
2019-04-25T04:29:54.144Z,10.07
2019-04-25T04:32:24.230Z,13.03
2019-04-25T04:34:53.720Z,10.93
2019-04-25T04:37:23.620Z,10.07
2019-04-25T04:39:53.658Z,11.13
2019-04-25T04:42:23.728Z,13.63
2019-04-25T04:44:53.486Z,9.43
2019-04-25T04:47:23.578Z,14.27
2019-04-25T04:49:53.847Z,12.93
2019-04-25T04:52:25.216Z,10.63
2019-04-25T04:55:03.743Z,9.37
2019-04-25T04:57:32.734Z,11.97
2019-04-25T04:59:53.657Z,9.97
2019-04-25T05:02:40.130Z,11.50
2019-04-25T05:05:17.154Z,10.30
2019-04-25T05:07:47.332Z,8.83
2019-04-25T05:10:18.370Z,9.40
2019-04-25T05:12:46.001Z,8.10
2019-04-25T05:15:16.220Z,12.57
2019-04-25T05:17:44.742Z,9.27
2019-04-25T05:20:15.134Z,6.73
2019-04-25T05:22:44.504Z,6.27
2019-04-25T05:25:15.285Z,7.00
2019-04-25T05:27:57.830Z,6.97
2019-04-25T05:30:17.089Z,6.13
2019-04-25T05:32:46.449Z,7.37
2019-04-25T05:35:15.447Z,5.20
2019-04-25T05:37:44.786Z,6.47
2019-04-25T05:40:16.139Z,5.27
2019-04-25T05:42:46.865Z,7.33
2019-04-25T05:45:18.502Z,4.87
2019-04-25T05:47:46.380Z,5.67
2019-04-25T05:50:15.642Z,5.60
2019-04-25T05:52:45.967Z,6.58
2019-04-25T05:55:17.304Z,6.73
2019-04-25T05:57:49.634Z,5.90
2019-04-25T06:00:17.487Z,7.40
2019-04-25T06:02:46.160Z,5.67
2019-04-25T06:05:15.143Z,5.37
2019-04-25T06:07:43.603Z,6.53
2019-04-25T06:10:23.950Z,6.50
2019-04-25T06:13:13.906Z,6.80
2019-04-25T06:15:44.297Z,5.63
2019-04-25T06:18:21.110Z,6.70
2019-04-25T06:20:49.975Z,8.73
2019-04-25T06:23:36.169Z,6.73
2019-04-25T06:26:19.272Z,5.13
2019-04-25T06:28:35.388Z,5.92
2019-04-25T06:31:04.465Z,6.75
2019-04-25T06:33:34.209Z,5.28
2019-04-25T06:36:04.146Z,5.90
2019-04-25T06:38:33.466Z,4.47
2019-04-25T06:41:03.512Z,4.58
2019-04-25T06:43:34.136Z,4.53
2019-04-25T06:46:21.050Z,6.60
2019-04-25T06:48:51.390Z,6.80
2019-04-25T06:51:22.531Z,4.37
2019-04-25T06:53:51.053Z,17.17
2019-04-25T06:56:19.497Z,3.07
2019-04-25T06:58:47.946Z,3.30
2019-04-25T07:01:16.377Z,6.22
2019-04-25T07:03:44.854Z,3.20
2019-04-25T07:06:14.728Z,2.83
2019-04-25T07:08:44.750Z,3.00
2019-04-25T07:11:13.991Z,4.37
2019-04-25T07:13:43.845Z,3.47
2019-04-25T07:16:13.370Z,2.47
2019-04-25T07:18:43.602Z,2.92
2019-04-25T07:21:12.207Z,2.80
2019-04-25T07:23:43.247Z,3.35
2019-04-25T07:26:14.761Z,1.80
2019-04-25T07:28:50.407Z,1.77
2019-04-25T07:31:23.321Z,3.47
2019-04-25T07:33:54.582Z,1.35
2019-04-25T07:36:23.305Z,2.17
2019-04-25T07:39:05.462Z,3.15
2019-04-25T07:41:22.165Z,2.50
2019-04-25T07:43:50.627Z,1.82
2019-04-25T07:46:19.138Z,5.20
2019-04-25T07:48:47.660Z,3.47
2019-04-25T07:51:16.615Z,1.47
2019-04-25T07:53:45.285Z,8.53
2019-04-25T07:56:14.305Z,3.30
2019-04-25T07:58:50.337Z,1.87
2019-04-25T08:01:14.932Z,1.10
2019-04-25T08:03:43.937Z,3.45
2019-04-25T08:06:13.731Z,1.00
2019-04-25T08:08:43.631Z,2.52
2019-04-25T08:11:14.012Z,3.70
2019-04-25T08:13:50.299Z,0.98
2019-04-25T08:16:20.378Z,4.75
2019-04-25T08:18:49.977Z,0.90
2019-04-25T08:21:18.592Z,2.05
2019-04-25T08:23:47.912Z,3.80
2019-04-25T08:26:16.412Z,2.65
2019-04-25T08:28:54.942Z,2.10
2019-04-25T08:31:15.066Z,3.22
2019-04-25T08:33:46.335Z,0.95
2019-04-25T08:36:13.810Z,1.77
2019-04-25T08:38:44.386Z,15.05
2019-04-25T08:41:14.047Z,2.75
2019-04-25T08:43:44.950Z,1.15
2019-04-25T08:46:14.019Z,2.12
2019-04-25T08:49:02.224Z,1.55
2019-04-25T08:51:33.930Z,3.60
2019-04-25T08:54:03.996Z,4.55
2019-04-25T08:56:35.171Z,2.05
2019-04-25T08:59:32.760Z,0.82
2019-04-25T09:01:54.667Z,1.47
2019-04-25T09:04:25.560Z,3.40
2019-04-25T09:06:54.249Z,0.88
2019-04-25T09:09:23.571Z,2.12
2019-04-25T09:11:52.223Z,3.10
2019-04-25T09:14:20.694Z,0.53
2019-04-25T09:16:49.146Z,2.47
2019-04-25T09:19:17.577Z,2.25
2019-04-25T09:21:49.355Z,1.37
2019-04-25T09:24:16.221Z,0.47
2019-04-25T09:26:45.395Z,1.02
2019-04-25T09:29:17.562Z,3.10
2019-04-25T09:31:45.183Z,1.50
2019-04-25T09:34:14.611Z,15.00
2019-04-25T09:36:43.944Z,1.95
2019-04-25T09:39:17.760Z,4.12
2019-04-25T09:41:46.243Z,3.35
2019-04-25T09:44:16.326Z,2.33
2019-04-25T09:46:46.865Z,1.22
2019-04-25T09:49:19.559Z,2.12
2019-04-25T09:51:53.462Z,5.83
2019-04-25T09:54:29.531Z,3.65
2019-04-25T09:57:05.626Z,2.60
2019-04-25T09:59:35.281Z,0.75
2019-04-25T10:02:05.417Z,2.58
2019-04-25T10:04:34.659Z,5.60
2019-04-25T10:07:03.522Z,6.10
2019-04-25T10:09:33.672Z,4.92
2019-04-25T10:12:02.329Z,4.53
2019-04-25T10:14:42.090Z,2.30
2019-04-25T10:17:10.525Z,0.60
2019-04-25T10:19:39.148Z,0.67
2019-04-25T10:22:07.959Z,9.23
2019-04-25T10:24:37.412Z,3.33
2019-04-25T10:27:06.770Z,1.63
2019-04-25T10:29:44.473Z,2.53
2019-04-25T10:32:06.210Z,1.85
2019-04-25T10:34:34.701Z,1.53
2019-04-25T10:37:03.427Z,1.10
2019-04-25T10:39:33.827Z,2.57
2019-04-25T10:42:03.604Z,9.80
2019-04-25T10:44:33.738Z,3.23
2019-04-25T10:47:02.590Z,1.97
2019-04-25T10:49:31.159Z,1.37
2019-04-25T10:51:59.614Z,1.67
2019-04-25T10:54:28.066Z,2.20
2019-04-25T10:56:56.681Z,5.23
2019-04-25T10:59:25.189Z,1.50
2019-04-25T11:01:55.083Z,1.60
2019-04-25T11:04:25.552Z,2.30
2019-04-25T11:06:55.193Z,1.13
2019-04-25T11:09:25.066Z,2.83
2019-04-25T11:11:53.638Z,2.47
2019-04-25T11:14:23.814Z,3.47
2019-04-25T11:16:54.973Z,1.40
2019-04-25T11:19:23.907Z,1.27
2019-04-25T11:21:53.837Z,33.10
2019-04-25T11:24:23.699Z,2.60
2019-04-25T11:26:54.271Z,4.00
2019-04-25T11:29:24.043Z,4.10
2019-04-25T11:31:53.410Z,1.60
2019-04-25T11:34:22.878Z,2.23
2019-04-25T11:36:51.540Z,1.03
2019-04-25T11:39:27.567Z,8.63
2019-04-25T11:41:56.073Z,1.23
2019-04-25T11:44:24.625Z,2.70
2019-04-25T11:46:53.138Z,1.70
2019-04-25T11:49:21.611Z,9.47
2019-04-25T11:51:50.282Z,4.17
2019-04-25T11:54:19.435Z,3.30
2019-04-25T11:56:48.632Z,8.63
2019-04-25T11:59:17.364Z,3.33
2019-04-25T12:01:47.549Z,3.43
2019-04-25T12:04:16.088Z,3.83
2019-04-25T12:06:46.032Z,17.10
2019-04-25T12:09:14.831Z,4.73
2019-04-25T12:11:45.457Z,4.17
2019-04-25T12:14:14.877Z,6.83
2019-04-25T12:16:46.159Z,4.50
2019-04-25T12:19:14.001Z,5.80
2019-04-25T12:21:43.711Z,16.83
2019-04-25T12:24:13.704Z,3.57
2019-04-25T12:26:45.125Z,3.47
2019-04-25T12:29:14.222Z,9.93
2019-04-25T12:31:44.226Z,3.77
2019-04-25T12:34:14.162Z,3.03
2019-04-25T12:36:44.353Z,2.13
2019-04-25T12:39:13.980Z,4.70
2019-04-25T12:41:45.543Z,3.10
2019-04-25T12:44:30.363Z,1.47
2019-04-25T12:47:00.459Z,7.97
2019-04-25T12:49:28.938Z,7.23
2019-04-25T12:51:57.437Z,4.40
2019-04-25T12:54:26.038Z,1.23
2019-04-25T12:56:54.503Z,5.20
2019-04-25T12:59:23.022Z,3.50
2019-04-25T13:01:53.643Z,2.93
2019-04-25T13:04:21.633Z,4.40
2019-04-25T13:06:50.549Z,5.27
2019-04-25T13:09:19.101Z,5.93
2019-04-25T13:11:47.547Z,2.77
2019-04-25T13:14:16.054Z,5.10
2019-04-25T13:16:44.497Z,3.40
2019-04-25T13:19:21.086Z,6.93
2019-04-25T13:21:43.334Z,3.70
2019-04-25T13:24:11.926Z,4.27
2019-04-25T13:26:43.501Z,5.30
2019-04-25T13:29:29.873Z,2.73
2019-04-25T13:32:11.787Z,3.83
2019-04-25T13:34:41.870Z,12.23
2019-04-25T13:37:10.506Z,4.77
2019-04-25T13:39:38.956Z,2.30
2019-04-25T13:42:08.051Z,7.87
2019-04-25T13:44:36.489Z,10.90
2019-04-25T13:47:05.742Z,4.10
2019-04-25T13:49:34.237Z,3.07
2019-04-25T13:52:04.430Z,3.10
2019-04-25T13:54:33.833Z,4.47
2019-04-25T13:57:03.330Z,8.40
2019-04-25T13:59:32.634Z,6.47
2019-04-25T14:02:04.085Z,3.10
2019-04-25T14:04:34.380Z,8.30
2019-04-25T14:07:03.430Z,8.23
2019-04-25T14:09:32.229Z,2.47
2019-04-25T14:12:00.776Z,2.30
2019-04-25T14:14:30.224Z,2.80
2019-04-25T14:17:06.664Z,2.73
2019-04-25T14:19:44.328Z,2.53
2019-04-25T14:22:12.941Z,3.30
2019-04-25T14:24:41.378Z,3.10
2019-04-25T14:27:11.530Z,2.43
2019-04-25T14:29:40.021Z,4.67
2019-04-25T14:32:09.911Z,4.63
2019-04-25T14:34:38.396Z,10.23
2019-04-25T14:37:06.905Z,2.83
2019-04-25T14:39:36.012Z,4.37
2019-04-25T14:42:04.626Z,3.87
2019-04-25T14:44:33.564Z,2.80
2019-04-25T14:47:02.099Z,4.87
2019-04-25T14:49:32.758Z,4.07
2019-04-25T14:52:02.031Z,6.77
2019-04-25T14:54:36.064Z,3.37
2019-04-25T14:57:06.639Z,12.27
2019-04-25T14:59:35.103Z,7.37
2019-04-25T15:02:03.711Z,4.87
2019-04-25T15:04:33.116Z,4.60
2019-04-25T15:07:01.694Z,3.97
2019-04-25T15:09:30.407Z,1.80
2019-04-25T15:11:58.890Z,1.77
2019-04-25T15:14:27.356Z,3.47
2019-04-25T15:16:55.948Z,2.83
2019-04-25T15:19:25.429Z,4.10
2019-04-25T15:21:53.964Z,2.57
2019-04-25T15:24:22.998Z,1.17
2019-04-25T15:26:52.539Z,2.60
2019-04-25T15:29:20.984Z,1.23
2019-04-25T15:31:55.721Z,2.50
2019-04-25T15:34:19.742Z,2.70
2019-04-25T15:37:02.262Z,2.20
2019-04-25T15:39:41.506Z,4.27
2019-04-25T15:42:11.685Z,9.10
2019-04-25T15:44:58.323Z,5.93
2019-04-25T15:47:28.479Z,4.17
2019-04-25T15:49:56.973Z,2.23
2019-04-25T15:52:26.657Z,2.70
2019-04-25T15:55:06.921Z,4.50
2019-04-25T15:57:28.317Z,4.63
2019-04-25T15:59:57.539Z,4.93
2019-04-25T16:02:25.996Z,3.03
2019-04-25T16:04:54.472Z,2.83
2019-04-25T16:07:23.640Z,5.47
2019-04-25T16:09:52.109Z,3.83
2019-04-25T16:12:20.634Z,4.40
2019-04-25T16:14:49.163Z,2.90
2019-04-25T16:17:17.611Z,3.83
2019-04-25T16:19:46.247Z,2.40
2019-04-25T16:22:14.772Z,3.20
2019-04-25T16:24:43.341Z,4.30
2019-04-25T16:27:11.862Z,3.93
2019-04-25T16:29:40.371Z,4.23
2019-04-25T16:32:19.938Z,4.40
2019-04-25T16:34:40.712Z,1.90
2019-04-25T16:37:09.389Z,4.77
2019-04-25T16:39:38.300Z,2.43
2019-04-25T16:42:07.026Z,2.07
2019-04-25T16:44:55.769Z,3.13
2019-04-25T16:47:31.144Z,2.60
2019-04-25T16:50:01.725Z,3.30
2019-04-25T16:52:36.229Z,5.53
2019-04-25T16:55:06.706Z,3.27
2019-04-25T16:57:35.170Z,2.23
2019-04-25T17:00:09.596Z,4.20
2019-04-25T17:02:40.864Z,6.80
2019-04-25T17:05:09.926Z,2.87
2019-04-25T17:07:38.500Z,2.60
2019-04-25T17:10:07.670Z,5.07
2019-04-25T17:12:36.497Z,2.53
2019-04-25T17:15:25.255Z,2.50
2019-04-25T17:18:13.835Z,2.40
2019-04-25T17:20:52.002Z,3.83
2019-04-25T17:23:20.451Z,2.33
2019-04-25T17:25:48.922Z,3.77
2019-04-25T17:28:17.820Z,4.17
2019-04-25T17:30:47.910Z,4.87
2019-04-25T17:33:21.084Z,4.33
2019-04-25T17:35:51.168Z,3.73
2019-04-25T17:38:24.029Z,2.93
2019-04-25T17:40:52.466Z,3.27
2019-04-25T17:43:21.057Z,7.67
2019-04-25T17:45:49.547Z,2.53
2019-04-25T17:48:18.076Z,6.77
2019-04-25T17:50:46.600Z,7.63
2019-04-25T17:53:15.067Z,4.77
2019-04-25T17:55:43.735Z,8.03
2019-04-25T17:58:12.366Z,8.13
2019-04-25T18:00:42.630Z,7.90
2019-04-25T18:03:11.271Z,9.00
2019-04-25T18:05:44.015Z,5.70
2019-04-25T18:08:12.511Z,6.13
2019-04-25T18:10:41.921Z,9.63
2019-04-25T18:13:10.568Z,4.93
2019-04-25T18:15:43.867Z,5.40
2019-04-25T18:18:14.168Z,6.17
2019-04-25T18:20:46.647Z,4.33
2019-04-25T18:23:16.817Z,5.27
2019-04-25T18:25:55.605Z,4.53
2019-04-25T18:28:41.551Z,4.67
2019-04-25T18:31:10.665Z,5.13
2019-04-25T18:33:39.379Z,7.93
2019-04-25T18:36:09.575Z,10.37
2019-04-25T18:38:39.715Z,4.33
2019-04-25T18:41:09.872Z,5.83
2019-04-25T18:43:49.082Z,5.17
2019-04-25T18:46:28.249Z,2.33
2019-04-25T18:49:00.735Z,5.67
2019-04-25T18:51:32.107Z,4.77
2019-04-25T18:54:17.213Z,3.37
2019-04-25T18:56:53.094Z,6.20
2019-04-25T18:59:39.578Z,3.60
2019-04-25T19:02:27.907Z,2.63
2019-04-25T19:04:59.647Z,5.33
2019-04-25T19:07:30.069Z,3.83
2019-04-25T19:09:58.593Z,6.50
2019-04-25T19:12:28.824Z,4.63
2019-04-25T19:15:00.464Z,4.43
2019-04-25T19:17:28.988Z,6.77
2019-04-25T19:19:57.505Z,4.40
2019-04-25T19:22:29.026Z,8.37
2019-04-25T19:25:00.841Z,4.63
2019-04-25T19:27:29.358Z,3.43
2019-04-25T19:29:57.991Z,5.77
2019-04-25T19:32:28.240Z,8.50
2019-04-25T19:35:00.958Z,7.63
2019-04-25T19:37:29.666Z,6.30
2019-04-25T19:40:03.968Z,6.30
2019-04-25T19:42:36.948Z,8.73
2019-04-25T19:45:08.726Z,4.67
2019-04-25T19:47:37.303Z,8.67
2019-04-25T19:50:06.120Z,5.17
2019-04-25T19:52:34.553Z,4.37
2019-04-25T19:55:02.998Z,6.53
2019-04-25T19:57:31.460Z,7.13
2019-04-25T19:59:59.896Z,5.40
2019-04-25T20:02:42.967Z,5.40
2019-04-25T20:05:31.834Z,4.37
2019-04-25T20:08:04.797Z,5.50
2019-04-25T20:10:37.973Z,6.60
2019-04-25T20:13:06.437Z,4.70
2019-04-25T20:15:34.988Z,4.73
2019-04-25T20:18:03.453Z,4.57
2019-04-25T20:20:31.943Z,5.77
2019-04-25T20:23:00.419Z,6.23
2019-04-25T20:25:28.987Z,6.67
2019-04-25T20:27:57.450Z,8.07
2019-04-25T20:30:25.894Z,5.43
2019-04-25T20:32:54.447Z,5.67
2019-04-25T20:35:22.904Z,8.00
2019-04-25T20:37:51.353Z,3.83
2019-04-25T20:40:19.877Z,10.10
2019-04-25T20:42:48.446Z,3.73
2019-04-25T20:45:17.320Z,4.53
2019-04-25T20:47:46.571Z,8.40
2019-04-25T20:50:15.203Z,4.13
2019-04-25T20:52:50.623Z,3.97
2019-04-25T20:55:19.360Z,6.77
2019-04-25T20:57:48.413Z,3.27
2019-04-25T21:00:29.899Z,3.37
2019-04-25T21:02:58.365Z,4.70
2019-04-25T21:05:26.808Z,4.87
2019-04-25T21:07:55.410Z,5.93
2019-04-25T21:10:23.885Z,6.43
2019-04-25T21:12:52.338Z,4.03
2019-04-25T21:15:31.625Z,4.07
2019-04-25T21:18:01.708Z,2.73
2019-04-25T21:20:30.156Z,2.40
2019-04-25T21:22:58.602Z,6.33
2019-04-25T21:25:27.032Z,2.63
2019-04-25T21:27:56.391Z,3.93
2019-04-25T21:30:25.026Z,3.87
2019-04-25T21:32:55.511Z,6.07
2019-04-25T21:35:24.812Z,4.87
2019-04-25T21:37:53.574Z,9.57
2019-04-25T21:40:29.879Z,5.37
2019-04-25T21:43:09.174Z,3.43
2019-04-25T21:45:38.116Z,4.30
2019-04-25T21:48:06.856Z,6.50
2019-04-25T21:50:35.759Z,5.53
2019-04-25T21:53:04.782Z,5.53
2019-04-25T21:55:33.530Z,8.20
2019-04-25T21:58:02.433Z,7.60
2019-04-25T22:00:51.535Z,6.87
2019-04-25T22:03:22.414Z,7.00
2019-04-25T22:05:51.226Z,8.03
2019-04-25T22:08:19.738Z,11.30
2019-04-25T22:10:48.226Z,11.63
2019-04-25T22:13:16.836Z,10.93
2019-04-25T22:15:46.409Z,8.53
2019-04-25T22:18:15.104Z,8.23
2019-04-25T22:20:43.663Z,8.60
2019-04-25T22:23:12.562Z,7.97
2019-04-25T22:25:41.389Z,7.70
2019-04-25T22:28:10.118Z,12.90
2019-04-25T22:30:40.326Z,8.10
2019-04-25T22:33:13.109Z,6.83
2019-04-25T22:35:43.222Z,10.37
2019-04-25T22:38:11.857Z,8.60
2019-04-25T22:40:40.422Z,10.67
2019-04-25T22:43:09.138Z,13.10
2019-04-25T22:45:37.969Z,9.67
2019-04-25T22:48:06.707Z,9.43
2019-04-25T22:50:35.978Z,7.83
2019-04-25T22:53:04.625Z,11.67
2019-04-25T22:55:33.605Z,9.63
2019-04-25T22:58:02.776Z,13.87
2019-04-25T23:00:33.987Z,11.20
2019-04-25T23:03:05.227Z,14.30
2019-04-25T23:05:35.870Z,12.30
2019-04-25T23:08:05.681Z,13.27
2019-04-25T23:10:34.560Z,16.17
2019-04-25T23:13:03.341Z,16.97
2019-04-25T23:15:31.936Z,14.63
2019-04-25T23:18:00.554Z,16.97
2019-04-25T23:20:29.027Z,19.10
2019-04-25T23:22:57.482Z,18.60
2019-04-25T23:25:27.665Z,22.53
2019-04-25T23:28:00.830Z,20.00
2019-04-25T23:30:31.204Z,17.70
2019-04-25T23:32:59.667Z,19.30
2019-04-25T23:35:32.249Z,21.03
2019-04-25T23:37:58.403Z,22.50
2019-04-25T23:40:26.849Z,19.47
2019-04-25T23:42:55.578Z,20.93
2019-04-25T23:45:24.027Z,23.93
2019-04-25T23:47:52.508Z,22.83
2019-04-25T23:50:21.308Z,21.63
2019-04-25T23:52:49.832Z,22.07
2019-04-25T23:55:18.673Z,21.60
2019-04-25T23:57:47.149Z,21.57
